Time;durP1;ratioP1;P1;durP2;ratioP2;P2;SDS_P1;SDS_P2;PMS_P1;PMS_P2;Temp;Humidity;BMP_temperature;BMP_pressure;BME280_temperature;BME280_humidity;BME280_pressure;Samples;Min_cycle;Max_cycle;Signal;HPM_P1;HPM_P2
2022/12/14 00:00:03;;;;;;;12.93;3.83;;;;;;;;;;5019652;28;20037;-65
2022/12/14 00:02:30;;;;;;;7.55;3.38;;;;;;;;;;5014698;28;20048;-66
2022/12/14 00:04:57;;;;;;;8.23;2.83;;;;;;;;;;5017651;28;20495;-66
2022/12/14 00:07:23;;;;;;;8.10;2.90;;;;;;;;;;5018095;28;20413;-66
2022/12/14 00:09:50;;;;;;;8.05;2.70;;;;;;;;;;5018317;28;20417;-66
2022/12/14 00:12:17;;;;;;;9.52;3.25;;;;;;;;;;5024082;28;20840;-67
2022/12/14 00:15:03;;;;;;;10.98;2.78;;;;;;;;;;5048862;28;20273;-66
2022/12/14 00:17:30;;;;;;;10.30;2.80;;;;;;;;;;5048368;28;20356;-66
2022/12/14 00:19:57;;;;;;;10.90;3.40;;;;;;;;;;5047484;28;20090;-66
2022/12/14 00:22:24;;;;;;;10.43;2.78;;;;;;;;;;5049061;28;20191;-66
2022/12/14 00:24:50;;;;;;;9.73;2.92;;;;;;;;;;5049881;28;20512;-65
2022/12/14 00:27:17;;;;;;;11.75;3.22;;;;;;;;;;5065692;28;20056;-65
2022/12/14 00:29:43;;;;;;;8.63;2.95;;;;;;;;;;5048497;28;20045;-65
2022/12/14 00:32:10;;;;;;;8.05;2.80;;;;;;;;;;5049981;28;20041;-66
2022/12/14 00:34:37;;;;;;;5.68;2.67;;;;;;;;;;5049854;28;20485;-65
2022/12/14 00:37:03;;;;;;;12.65;3.40;;;;;;;;;;5051457;28;20429;-66
2022/12/14 00:39:30;;;;;;;12.63;3.13;;;;;;;;;;5050087;28;20041;-66
2022/12/14 00:41:57;;;;;;;7.30;2.70;;;;;;;;;;5052082;28;20716;-66
2022/12/14 00:44:23;;;;;;;7.88;3.05;;;;;;;;;;5051960;28;20075;-66
2022/12/14 00:46:50;;;;;;;16.13;3.60;;;;;;;;;;5027011;28;20413;-66
2022/12/14 00:49:17;;;;;;;8.20;3.05;;;;;;;;;;5018476;28;20033;-65
2022/12/14 00:51:43;;;;;;;7.50;3.35;;;;;;;;;;5019908;28;20033;-65
2022/12/14 00:54:10;;;;;;;11.25;3.35;;;;;;;;;;5021860;28;20048;-66
2022/12/14 00:56:37;;;;;;;6.63;3.10;;;;;;;;;;5020140;28;20045;-65
2022/12/14 00:59:03;;;;;;;8.40;3.33;;;;;;;;;;5019279;28;20511;-66
2022/12/14 01:01:30;;;;;;;11.20;3.67;;;;;;;;;;5017236;28;20091;-65
2022/12/14 01:04:20;;;;;;;11.77;4.25;;;;;;;;;;5019935;28;20029;-65
2022/12/14 01:06:44;;;;;;;10.38;4.45;;;;;;;;;;5022772;28;20036;-65
2022/12/14 01:09:11;;;;;;;13.50;3.88;;;;;;;;;;5039799;28;20540;-64
2022/12/14 01:11:38;;;;;;;8.45;3.40;;;;;;;;;;5038136;28;20086;-65
2022/12/14 01:14:05;;;;;;;9.98;3.40;;;;;;;;;;5041780;28;20033;-66
2022/12/14 01:16:32;;;;;;;7.63;2.97;;;;;;;;;;5038187;28;20052;-66
2022/12/14 01:19:00;;;;;;;5.57;2.55;;;;;;;;;;5039175;28;20048;-66
2022/12/14 01:21:27;;;;;;;9.68;2.78;;;;;;;;;;5038293;28;20033;-64
2022/12/14 01:23:54;;;;;;;4.72;2.22;;;;;;;;;;5038594;28;20459;-67
2022/12/14 01:26:22;;;;;;;8.35;2.35;;;;;;;;;;5037811;28;20049;-66
2022/12/14 01:28:52;;;;;;;4.95;2.00;;;;;;;;;;5040491;28;20128;-65
2022/12/14 01:31:20;;;;;;;6.85;2.00;;;;;;;;;;5037910;28;20071;-66
2022/12/14 01:33:47;;;;;;;6.80;2.13;;;;;;;;;;5038982;28;20036;-66
2022/12/14 01:36:15;;;;;;;10.38;2.22;;;;;;;;;;5039650;28;20378;-65
2022/12/14 01:38:42;;;;;;;4.93;1.75;;;;;;;;;;5020490;28;20038;-67
2022/12/14 01:41:17;;;;;;;5.05;1.80;;;;;;;;;;5019546;28;20033;-65
2022/12/14 01:43:46;;;;;;;5.57;1.65;;;;;;;;;;5017456;28;20061;-66
2022/12/14 01:46:13;;;;;;;4.32;1.70;;;;;;;;;;5020099;28;20045;-66
2022/12/14 01:48:40;;;;;;;4.57;1.60;;;;;;;;;;5019456;28;20044;-64
2022/12/14 01:51:06;;;;;;;7.53;1.85;;;;;;;;;;5018819;28;20114;-67
2022/12/14 01:53:33;;;;;;;4.60;1.50;;;;;;;;;;5017618;28;20052;-66
2022/12/14 01:56:00;;;;;;;4.38;1.42;;;;;;;;;;5019563;28;20123;-66
2022/12/14 01:58:27;;;;;;;3.58;1.40;;;;;;;;;;5016553;28;20100;-65
2022/12/14 02:00:55;;;;;;;6.15;1.30;;;;;;;;;;5017457;28;20041;-66
2022/12/14 02:03:25;;;;;;;4.40;1.25;;;;;;;;;;5018217;28;21769;-66
2022/12/14 02:05:59;;;;;;;3.58;1.30;;;;;;;;;;5046973;28;20083;-64
2022/12/14 02:08:26;;;;;;;4.65;1.40;;;;;;;;;;5054673;28;20044;-62
2022/12/14 02:10:54;;;;;;;5.72;1.70;;;;;;;;;;5054682;28;20508;-65
2022/12/14 02:13:24;;;;;;;4.50;1.70;;;;;;;;;;5053105;28;20114;-63
2022/12/14 02:15:51;;;;;;;4.88;1.40;;;;;;;;;;5054380;28;20931;-65
2022/12/14 02:18:22;;;;;;;3.63;1.58;;;;;;;;;;5054138;28;20040;-65
2022/12/14 02:21:08;;;;;;;4.20;1.38;;;;;;;;;;5053389;28;20041;-64
2022/12/14 02:23:41;;;;;;;3.60;1.30;;;;;;;;;;5050460;28;20040;-65
2022/12/14 02:26:21;;;;;;;3.40;1.30;;;;;;;;;;5052792;28;20572;-65
2022/12/14 02:28:48;;;;;;;3.63;1.50;;;;;;;;;;5054633;28;20118;-65
2022/12/14 02:31:31;;;;;;;4.50;1.58;;;;;;;;;;5053200;28;20480;-64
2022/12/14 02:34:05;;;;;;;3.17;1.33;;;;;;;;;;5053392;28;20075;-66
2022/12/14 02:36:35;;;;;;;4.05;1.60;;;;;;;;;;5048539;28;20141;-65
2022/12/14 02:39:19;;;;;;;3.60;1.20;;;;;;;;;;5024280;28;20033;-65
2022/12/14 02:41:54;;;;;;;4.10;1.33;;;;;;;;;;5016501;28;20103;-67
2022/12/14 02:44:36;;;;;;;4.68;1.70;;;;;;;;;;5015619;28;20037;-67
2022/12/14 02:47:09;;;;;;;3.60;1.42;;;;;;;;;;5017707;28;20203;-66
2022/12/14 02:49:44;;;;;;;4.32;1.83;;;;;;;;;;5016857;28;21759;-66
2022/12/14 02:52:16;;;;;;;4.90;1.70;;;;;;;;;;5016718;28;20040;-65
2022/12/14 02:54:49;;;;;;;4.90;1.50;;;;;;;;;;5017575;28;20049;-65
2022/12/14 02:57:22;;;;;;;3.95;1.70;;;;;;;;;;5016770;28;20368;-67
2022/12/14 02:59:50;;;;;;;3.38;1.42;;;;;;;;;;5048871;28;20419;-65
2022/12/14 03:02:17;;;;;;;4.20;1.67;;;;;;;;;;5017420;28;20029;-65
2022/12/14 03:04:47;;;;;;;4.63;1.95;;;;;;;;;;5016655;28;20540;-66
2022/12/14 03:07:25;;;;;;;4.78;1.85;;;;;;;;;;5017113;28;20037;-66
2022/12/14 03:09:52;;;;;;;5.32;1.55;;;;;;;;;;5025287;28;20584;-67
2022/12/14 03:12:19;;;;;;;6.00;1.83;;;;;;;;;;5014509;28;20049;-66
2022/12/14 03:14:49;;;;;;;4.75;1.92;;;;;;;;;;5023954;28;20049;-66
2022/12/14 03:17:18;;;;;;;5.55;1.60;;;;;;;;;;5020233;28;20084;-66
2022/12/14 03:19:48;;;;;;;5.47;1.67;;;;;;;;;;5016365;28;20046;-67
2022/12/14 03:22:18;;;;;;;5.60;1.80;;;;;;;;;;5016728;28;20048;-65
2022/12/14 03:24:49;;;;;;;3.63;1.60;;;;;;;;;;5016999;28;20513;-66
2022/12/14 03:27:21;;;;;;;3.55;1.50;;;;;;;;;;5017365;28;20061;-66
2022/12/14 03:29:54;;;;;;;4.82;1.67;;;;;;;;;;5017816;28;20045;-66
2022/12/14 03:32:23;;;;;;;4.37;1.60;;;;;;;;;;5063693;28;20068;-67
2022/12/14 03:34:52;;;;;;;3.70;1.60;;;;;;;;;;5036617;28;20037;-67
2022/12/14 03:37:26;;;;;;;6.30;1.90;;;;;;;;;;5037909;28;20044;-67
2022/12/14 03:39:53;;;;;;;6.43;1.83;;;;;;;;;;5051686;28;20044;-65
2022/12/14 03:42:23;;;;;;;5.95;2.05;;;;;;;;;;5035225;28;20459;-65
2022/12/14 03:44:49;;;;;;;4.13;1.73;;;;;;;;;;5036009;28;20080;-66
2022/12/14 03:47:23;;;;;;;4.22;1.67;;;;;;;;;;5035820;28;20037;-66
2022/12/14 03:49:56;;;;;;;4.10;1.80;;;;;;;;;;5025352;28;20316;-67
2022/12/14 03:52:26;;;;;;;5.05;2.13;;;;;;;;;;5048775;28;20040;-66
2022/12/14 03:55:11;;;;;;;4.75;2.17;;;;;;;;;;5015925;28;20116;-65
2022/12/14 03:57:40;;;;;;;5.45;1.95;;;;;;;;;;5015599;28;20049;-65
2022/12/14 04:00:09;;;;;;;6.88;2.20;;;;;;;;;;5015679;28;20034;-66
2022/12/14 04:02:41;;;;;;;3.78;1.60;;;;;;;;;;5016100;28;20064;-67
2022/12/14 04:05:30;;;;;;;3.40;1.52;;;;;;;;;;5016582;28;20144;-66
2022/12/14 04:07:57;;;;;;;4.80;1.92;;;;;;;;;;5023237;28;20496;-66
2022/12/14 04:19:01;;;;;;;4.63;1.90;;;;;;;;;;5020797;28;20071;-67
2022/12/14 04:21:31;;;;;;;6.43;2.08;;;;;;;;;;5020554;28;20037;-66
2022/12/14 04:27:13;;;;;;;6.35;2.03;;;;;;;;;;5020258;28;20079;-67
2022/12/14 04:29:56;;;;;;;7.63;2.30;;;;;;;;;;5019326;28;20041;-67
2022/12/14 04:32:38;;;;;;;6.30;2.30;;;;;;;;;;5018789;28;20046;-67
2022/12/14 04:35:07;;;;;;;3.30;1.52;;;;;;;;;;5019466;28;20059;-67
2022/12/14 04:37:36;;;;;;;4.03;1.83;;;;;;;;;;5018383;28;20049;-66
2022/12/14 04:40:09;;;;;;;4.18;1.83;;;;;;;;;;5020076;28;20033;-65
2022/12/14 04:42:44;;;;;;;9.43;2.50;;;;;;;;;;5018155;28;20375;-66
2022/12/14 04:45:16;;;;;;;4.57;1.92;;;;;;;;;;5020486;28;20033;-66
2022/12/14 04:47:51;;;;;;;4.78;2.45;;;;;;;;;;5017751;28;20045;-66
2022/12/14 04:50:34;;;;;;;6.40;2.40;;;;;;;;;;5020179;28;21056;-67
2022/12/14 04:53:03;;;;;;;5.57;2.08;;;;;;;;;;5018429;28;20045;-65
2022/12/14 04:55:34;;;;;;;5.68;2.83;;;;;;;;;;5021427;28;20049;-65
2022/12/14 04:58:01;;;;;;;5.90;2.03;;;;;;;;;;5037345;28;20111;-65
2022/12/14 05:00:30;;;;;;;4.60;1.83;;;;;;;;;;5021425;28;20033;-65
2022/12/14 05:03:06;;;;;;;6.07;2.38;;;;;;;;;;5020259;28;20544;-65
2022/12/14 05:05:51;;;;;;;9.77;4.60;;;;;;;;;;5028922;28;20034;-65
2022/12/14 05:08:27;;;;;;;5.78;2.92;;;;;;;;;;5019324;28;20045;-65
2022/12/14 05:11:08;;;;;;;6.93;3.20;;;;;;;;;;5019881;28;20061;-64
2022/12/14 05:13:43;;;;;;;5.13;3.08;;;;;;;;;;5019153;28;20041;-64
2022/12/14 05:16:11;;;;;;;8.68;4.15;;;;;;;;;;5019776;28;20133;-65
2022/12/14 05:18:37;;;;;;;9.10;5.05;;;;;;;;;;5018719;28;20073;-65
2022/12/14 05:21:04;;;;;;;7.65;3.03;;;;;;;;;;5019177;28;20045;-66
2022/12/14 05:23:31;;;;;;;8.73;4.97;;;;;;;;;;5019070;28;20041;-65
2022/12/14 05:25:57;;;;;;;8.35;4.28;;;;;;;;;;5019909;28;20069;-66
2022/12/14 05:28:24;;;;;;;6.35;3.22;;;;;;;;;;5021748;28;20042;-65
2022/12/14 05:30:51;;;;;;;9.20;5.40;;;;;;;;;;5021298;28;20507;-65
2022/12/14 05:33:18;;;;;;;10.38;4.32;;;;;;;;;;5020437;28;20152;-66
2022/12/14 05:35:45;;;;;;;8.63;4.60;;;;;;;;;;5021972;28;20140;-66
2022/12/14 05:38:12;;;;;;;9.90;4.25;;;;;;;;;;5027749;28;20045;-68
2022/12/14 05:40:39;;;;;;;10.32;5.47;;;;;;;;;;5028602;28;20565;-67
2022/12/14 05:43:06;;;;;;;8.65;5.22;;;;;;;;;;5030352;28;20501;-67
2022/12/14 05:45:33;;;;;;;7.53;4.40;;;;;;;;;;5028428;28;20090;-66
2022/12/14 05:48:00;;;;;;;6.03;3.70;;;;;;;;;;5033566;28;20033;-66
2022/12/14 05:50:26;;;;;;;8.32;3.67;;;;;;;;;;5027315;28;20037;-67
2022/12/14 05:52:54;;;;;;;6.22;3.53;;;;;;;;;;5018555;28;20042;-66
2022/12/14 05:55:21;;;;;;;8.57;4.85;;;;;;;;;;5048297;28;20286;-67
2022/12/14 05:57:48;;;;;;;6.82;3.15;;;;;;;;;;5018409;28;20045;-67
2022/12/14 06:00:15;;;;;;;6.85;3.08;;;;;;;;;;5018820;28;20168;-67
2022/12/14 06:02:41;;;;;;;9.88;4.88;;;;;;;;;;5032634;28;20041;-66
2022/12/14 06:05:08;;;;;;;7.15;4.30;;;;;;;;;;5017939;28;21329;-69
2022/12/14 06:07:35;;;;;;;8.15;4.00;;;;;;;;;;5049822;28;20048;-67
2022/12/14 06:10:02;;;;;;;5.43;2.95;;;;;;;;;;5018828;28;20066;-67
2022/12/14 06:12:30;;;;;;;5.57;2.63;;;;;;;;;;5050614;28;20037;-68
2022/12/14 06:14:57;;;;;;;6.10;3.10;;;;;;;;;;5027961;28;20124;-67
2022/12/14 06:17:23;;;;;;;5.97;3.35;;;;;;;;;;5018890;28;20049;-67
2022/12/14 06:19:52;;;;;;;7.15;3.92;;;;;;;;;;5017968;28;20049;-67
2022/12/14 06:22:18;;;;;;;6.88;3.90;;;;;;;;;;5016345;28;20041;-68
2022/12/14 06:24:46;;;;;;;7.65;3.60;;;;;;;;;;5016619;28;20123;-67
2022/12/14 06:27:12;;;;;;;6.95;3.22;;;;;;;;;;5026417;28;20041;-68
2022/12/14 06:29:39;;;;;;;7.70;3.60;;;;;;;;;;5037226;28;20037;-67
2022/12/14 06:32:06;;;;;;;8.05;4.15;;;;;;;;;;5037752;28;20037;-66
2022/12/14 06:34:32;;;;;;;6.85;4.28;;;;;;;;;;5037653;28;20124;-66
2022/12/14 06:36:59;;;;;;;7.32;3.28;;;;;;;;;;5034048;28;20195;-67
2022/12/14 06:39:26;;;;;;;8.40;3.95;;;;;;;;;;5026814;28;20099;-67
2022/12/14 06:41:52;;;;;;;9.00;4.97;;;;;;;;;;5029114;28;20640;-67
2022/12/14 06:44:19;;;;;;;10.77;5.05;;;;;;;;;;5012242;28;20048;-67
2022/12/14 06:46:49;;;;;;;8.45;2.75;;;;;;;;;;5016561;28;20077;-66
2022/12/14 06:49:18;;;;;;;7.65;4.63;;;;;;;;;;5021249;28;20038;-66
2022/12/14 06:51:45;;;;;;;6.80;3.63;;;;;;;;;;4999289;28;20523;-66
2022/12/14 06:54:12;;;;;;;12.80;6.05;;;;;;;;;;5005788;28;20196;-67
2022/12/14 06:56:39;;;;;;;10.10;5.72;;;;;;;;;;5000694;28;20073;-66
2022/12/14 06:59:07;;;;;;;8.38;3.35;;;;;;;;;;5000657;28;20041;-67
2022/12/14 07:01:34;;;;;;;9.80;4.95;;;;;;;;;;4993035;28;20495;-66
2022/12/14 07:04:01;;;;;;;8.85;4.68;;;;;;;;;;4998506;28;20056;-66
2022/12/14 07:06:31;;;;;;;9.38;5.03;;;;;;;;;;5004384;28;20702;-66
2022/12/14 07:08:58;;;;;;;6.68;3.85;;;;;;;;;;4999037;28;20570;-66
2022/12/14 07:11:26;;;;;;;8.25;4.90;;;;;;;;;;5001726;28;20038;-67
2022/12/14 07:13:53;;;;;;;7.55;3.40;;;;;;;;;;4992442;28;20055;-66
2022/12/14 07:16:21;;;;;;;7.25;2.75;;;;;;;;;;4990836;28;20074;-67
2022/12/14 07:18:49;;;;;;;6.25;2.65;;;;;;;;;;4987686;28;20046;-67
2022/12/14 07:21:17;;;;;;;6.90;2.20;;;;;;;;;;4991409;28;20101;-66
2022/12/14 07:23:44;;;;;;;4.70;2.25;;;;;;;;;;4997810;28;20059;-65
2022/12/14 07:26:13;;;;;;;8.55;3.80;;;;;;;;;;5003004;28;20068;-66
2022/12/14 07:28:39;;;;;;;5.63;3.08;;;;;;;;;;5009294;28;20309;-67
2022/12/14 07:31:07;;;;;;;6.72;3.78;;;;;;;;;;4998571;28;20040;-66
2022/12/14 07:33:34;;;;;;;7.50;3.10;;;;;;;;;;4992711;28;20201;-66
2022/12/14 07:36:01;;;;;;;6.93;3.20;;;;;;;;;;4990860;28;20309;-66
2022/12/14 07:38:28;;;;;;;6.22;2.67;;;;;;;;;;4989428;28;20688;-65
2022/12/14 07:41:01;;;;;;;6.72;4.45;;;;;;;;;;4991505;28;20495;-65
2022/12/14 07:43:27;;;;;;;6.80;2.95;;;;;;;;;;5017186;28;20080;-65
2022/12/14 07:45:58;;;;;;;3.95;1.80;;;;;;;;;;5022784;28;20394;-66
2022/12/14 07:48:25;;;;;;;8.98;4.00;;;;;;;;;;5020361;28;20376;-67
2022/12/14 07:50:51;;;;;;;5.35;2.42;;;;;;;;;;5022042;28;20042;-65
2022/12/14 07:53:18;;;;;;;6.05;2.22;;;;;;;;;;5034844;28;20042;-65
2022/12/14 07:55:45;;;;;;;5.28;2.45;;;;;;;;;;5035261;28;20460;-65
2022/12/14 07:58:11;;;;;;;5.15;1.85;;;;;;;;;;5029955;28;20160;-65
2022/12/14 08:00:38;;;;;;;5.80;2.70;;;;;;;;;;5034617;28;20405;-66
2022/12/14 08:03:05;;;;;;;4.68;2.00;;;;;;;;;;5035987;28;20510;-65
2022/12/14 08:05:51;;;;;;;4.07;1.70;;;;;;;;;;5058432;28;20566;-65
2022/12/14 08:08:18;;;;;;;4.22;1.98;;;;;;;;;;5057455;28;20044;-68
2022/12/14 08:10:48;;;;;;;4.05;1.63;;;;;;;;;;5057292;28;20037;-66
2022/12/14 08:13:15;;;;;;;4.28;1.00;;;;;;;;;;5057878;28;20036;-65
2022/12/14 08:15:41;;;;;;;3.47;1.02;;;;;;;;;;5056378;28;20063;-66
2022/12/14 08:18:08;;;;;;;4.97;1.80;;;;;;;;;;5058254;28;20044;-67
2022/12/14 08:20:34;;;;;;;3.35;1.30;;;;;;;;;;5035485;28;20158;-67
2022/12/14 08:23:01;;;;;;;5.75;1.60;;;;;;;;;;5057128;28;20885;-68
2022/12/14 08:25:28;;;;;;;5.38;2.42;;;;;;;;;;5056495;28;20563;-68
2022/12/14 08:27:54;;;;;;;4.43;2.33;;;;;;;;;;5056650;28;20576;-70
2022/12/14 08:30:41;;;;;;;4.30;2.15;;;;;;;;;;5033288;28;20508;-67
2022/12/14 08:33:07;;;;;;;4.43;1.90;;;;;;;;;;5055158;28;20399;-67
2022/12/14 08:35:54;;;;;;;5.65;2.78;;;;;;;;;;4992269;28;20041;-67
2022/12/14 08:38:41;;;;;;;4.72;2.10;;;;;;;;;;4978960;28;20137;-67
2022/12/14 08:41:09;;;;;;;3.10;1.52;;;;;;;;;;4993399;28;20042;-66
2022/12/14 08:43:37;;;;;;;5.38;2.22;;;;;;;;;;4985686;28;20053;-67
2022/12/14 08:46:04;;;;;;;3.53;1.30;;;;;;;;;;4980542;28;20049;-67
2022/12/14 08:48:31;;;;;;;4.03;1.73;;;;;;;;;;4975030;28;20037;-67
2022/12/14 08:51:05;;;;;;;4.53;2.03;;;;;;;;;;4977855;28;20982;-66
2022/12/14 08:53:32;;;;;;;3.00;1.30;;;;;;;;;;4978364;28;20084;-67
2022/12/14 08:55:59;;;;;;;2.90;1.15;;;;;;;;;;4977916;28;20038;-65
2022/12/14 08:58:26;;;;;;;4.65;1.58;;;;;;;;;;4977690;28;20162;-66
2022/12/14 09:00:59;;;;;;;3.25;1.48;;;;;;;;;;4979010;28;20077;-67
2022/12/14 09:03:26;;;;;;;3.65;1.80;;;;;;;;;;4976731;28;20409;-66
2022/12/14 09:05:54;;;;;;;4.18;1.40;;;;;;;;;;4978877;28;20046;-66
2022/12/14 09:08:21;;;;;;;3.70;1.40;;;;;;;;;;4978271;28;20042;-66
2022/12/14 09:10:58;;;;;;;4.90;2.13;;;;;;;;;;4977632;28;20050;-66
2022/12/14 09:13:24;;;;;;;9.05;2.15;;;;;;;;;;4980462;28;20676;-65
2022/12/14 09:16:01;;;;;;;5.35;2.20;;;;;;;;;;5020157;28;20116;-67
2022/12/14 09:18:30;;;;;;;3.80;1.63;;;;;;;;;;5032951;28;20045;-65
2022/12/14 09:20:57;;;;;;;3.13;1.52;;;;;;;;;;5039950;28;20032;-66
2022/12/14 09:23:25;;;;;;;3.80;1.75;;;;;;;;;;5038983;28;20029;-66
2022/12/14 09:26:02;;;;;;;3.47;1.42;;;;;;;;;;5039479;28;20052;-65
2022/12/14 09:28:29;;;;;;;5.53;1.90;;;;;;;;;;5038147;28;20065;-66
2022/12/14 09:30:56;;;;;;;2.72;1.17;;;;;;;;;;5036219;28;20036;-66
2022/12/14 09:33:24;;;;;;;3.72;1.63;;;;;;;;;;5038628;28;20051;-66
2022/12/14 09:35:52;;;;;;;4.13;1.63;;;;;;;;;;5039983;28;20048;-66
2022/12/14 09:38:20;;;;;;;3.42;1.17;;;;;;;;;;5038910;28;20056;-65
2022/12/14 09:40:52;;;;;;;7.28;1.55;;;;;;;;;;5037268;28;20028;-67
2022/12/14 09:43:28;;;;;;;3.10;1.27;;;;;;;;;;5039241;28;21062;-67
2022/12/14 09:45:57;;;;;;;3.90;1.85;;;;;;;;;;5038721;28;20293;-65
2022/12/14 09:48:25;;;;;;;3.25;1.30;;;;;;;;;;5038925;28;20043;-66
2022/12/14 09:50:53;;;;;;;2.85;1.33;;;;;;;;;;5036713;28;20076;-65
2022/12/14 09:53:20;;;;;;;2.70;1.23;;;;;;;;;;5038148;28;20049;-66
2022/12/14 09:55:54;;;;;;;3.55;1.50;;;;;;;;;;5039373;28;21125;-66
2022/12/14 09:58:25;;;;;;;4.22;1.92;;;;;;;;;;5037117;28;20040;-65
2022/12/14 10:00:52;;;;;;;4.13;1.63;;;;;;;;;;5055068;28;20140;-66
2022/12/14 10:03:34;;;;;;;4.72;2.15;;;;;;;;;;5037523;28;20036;-66
2022/12/14 10:06:21;;;;;;;3.50;1.60;;;;;;;;;;5038914;28;20048;-66
2022/12/14 10:09:06;;;;;;;2.67;1.30;;;;;;;;;;5025433;28;20037;-66
2022/12/14 10:12:02;;;;;;;4.70;1.65;;;;;;;;;;5017401;28;20102;-69
2022/12/14 10:14:48;;;;;;;4.88;1.98;;;;;;;;;;4996046;28;20153;-65
2022/12/14 10:17:33;;;;;;;6.78;2.15;;;;;;;;;;5018277;28;20068;-66
2022/12/14 10:20:03;;;;;;;4.93;2.13;;;;;;;;;;5021677;28;20080;-65
2022/12/14 10:22:37;;;;;;;4.82;2.10;;;;;;;;;;5022452;28;20042;-65
2022/12/14 10:25:09;;;;;;;4.82;1.98;;;;;;;;;;5028519;28;20114;-66
2022/12/14 10:27:37;;;;;;;3.88;1.95;;;;;;;;;;5019806;28;20045;-65
2022/12/14 10:30:11;;;;;;;3.75;1.98;;;;;;;;;;5018159;28;20033;-65
2022/12/14 10:32:39;;;;;;;3.78;1.73;;;;;;;;;;5018556;28;20521;-66
2022/12/14 10:35:32;;;;;;;2.83;1.60;;;;;;;;;;5017047;28;20045;-66
2022/12/14 10:38:19;;;;;;;5.45;2.42;;;;;;;;;;5018099;28;20064;-66
2022/12/14 10:40:49;;;;;;;4.80;2.20;;;;;;;;;;5032532;28;20040;-66
2022/12/14 10:43:34;;;;;;;3.50;1.67;;;;;;;;;;5020498;28;20038;-65
2022/12/14 10:46:14;;;;;;;3.80;1.83;;;;;;;;;;5016575;28;20096;-67
2022/12/14 10:48:41;;;;;;;6.28;2.33;;;;;;;;;;5015937;28;20045;-66
2022/12/14 10:51:12;;;;;;;6.85;2.38;;;;;;;;;;5047387;28;20037;-67
2022/12/14 10:54:08;;;;;;;5.78;2.50;;;;;;;;;;5015593;28;20045;-64
2022/12/14 10:56:35;;;;;;;4.38;2.00;;;;;;;;;;5019739;28;20111;-64
2022/12/14 10:59:20;;;;;;;4.90;2.35;;;;;;;;;;5017884;28;20044;-67
2022/12/14 11:01:57;;;;;;;5.10;2.28;;;;;;;;;;5047788;28;20494;-66
2022/12/14 11:04:31;;;;;;;4.78;2.92;;;;;;;;;;5019385;28;20116;-65
2022/12/14 11:07:02;;;;;;;7.07;2.28;;;;;;;;;;5018560;28;20041;-66
2022/12/14 11:09:29;;;;;;;5.20;3.00;;;;;;;;;;5015107;28;20037;-66
2022/12/14 11:12:00;;;;;;;4.97;2.80;;;;;;;;;;5026625;28;20120;-66
2022/12/14 11:14:27;;;;;;;5.68;3.00;;;;;;;;;;5015778;28;20133;-65
2022/12/14 11:16:54;;;;;;;4.28;1.95;;;;;;;;;;5016654;28;20057;-66
2022/12/14 11:19:23;;;;;;;5.65;3.10;;;;;;;;;;5016522;28;20908;-66
2022/12/14 11:21:50;;;;;;;5.53;2.83;;;;;;;;;;5016134;28;20037;-66
2022/12/14 11:24:24;;;;;;;5.95;2.70;;;;;;;;;;5018561;28;20494;-66
2022/12/14 11:26:53;;;;;;;5.80;2.80;;;;;;;;;;5016270;28;20461;-66
2022/12/14 11:29:26;;;;;;;6.10;3.20;;;;;;;;;;5016400;28;20317;-67
2022/12/14 11:31:52;;;;;;;5.15;2.53;;;;;;;;;;5014218;28;21444;-65
2022/12/14 11:34:40;;;;;;;4.65;2.70;;;;;;;;;;5014718;28;20844;-66
2022/12/14 11:37:25;;;;;;;4.57;2.25;;;;;;;;;;5017591;28;20076;-66
2022/12/14 11:39:53;;;;;;;5.05;2.60;;;;;;;;;;5013902;28;20107;-66
2022/12/14 11:42:20;;;;;;;6.63;2.88;;;;;;;;;;5048608;28;20092;-65
2022/12/14 11:44:48;;;;;;;6.22;3.58;;;;;;;;;;5047811;28;20044;-66
2022/12/14 11:47:16;;;;;;;4.55;2.50;;;;;;;;;;5018791;28;20041;-65
2022/12/14 11:49:42;;;;;;;6.65;2.30;;;;;;;;;;5037837;28;20046;-66
2022/12/14 11:52:20;;;;;;;6.13;2.63;;;;;;;;;;5017333;28;20038;-66
2022/12/14 11:54:48;;;;;;;5.63;2.47;;;;;;;;;;5025628;28;20045;-64
2022/12/14 11:57:18;;;;;;;5.07;2.95;;;;;;;;;;5018013;28;20050;-64
2022/12/14 11:59:46;;;;;;;4.95;2.00;;;;;;;;;;5016947;28;20041;-64
2022/12/14 12:02:29;;;;;;;5.40;2.65;;;;;;;;;;5017274;28;20049;-64
2022/12/14 12:05:08;;;;;;;5.25;2.53;;;;;;;;;;5017409;28;20056;-65
2022/12/14 12:07:37;;;;;;;3.03;1.55;;;;;;;;;;5018684;28;20033;-65
2022/12/14 12:10:23;;;;;;;3.80;1.90;;;;;;;;;;5016648;28;20044;-65
2022/12/14 12:13:03;;;;;;;41.53;2.88;;;;;;;;;;5035578;28;20585;-65
2022/12/14 12:15:33;;;;;;;6.68;2.05;;;;;;;;;;5037919;28;20148;-65
2022/12/14 12:18:13;;;;;;;6.53;2.28;;;;;;;;;;5036946;28;20052;-65
2022/12/14 12:20:51;;;;;;;4.15;1.83;;;;;;;;;;5036785;28;20076;-65
2022/12/14 12:23:46;;;;;;;5.60;2.63;;;;;;;;;;5036788;28;20037;-65
2022/12/14 12:26:13;;;;;;;5.40;2.78;;;;;;;;;;5013048;28;20079;-66
2022/12/14 12:28:42;;;;;;;5.30;2.65;;;;;;;;;;5018198;28;20033;-66
2022/12/14 12:31:13;;;;;;;4.63;2.53;;;;;;;;;;5017873;28;20094;-66
2022/12/14 12:33:40;;;;;;;4.80;2.25;;;;;;;;;;5019102;28;20048;-66
2022/12/14 12:36:08;;;;;;;5.93;2.50;;;;;;;;;;5020946;28;20045;-66
2022/12/14 12:38:41;;;;;;;4.38;2.20;;;;;;;;;;5019383;28;20053;-66
2022/12/14 12:41:15;;;;;;;4.35;1.98;;;;;;;;;;5019640;28;20934;-66
2022/12/14 12:43:46;;;;;;;4.60;1.92;;;;;;;;;;5021398;28;20045;-66
2022/12/14 12:46:16;;;;;;;6.38;1.85;;;;;;;;;;5019860;28;20036;-66
2022/12/14 12:48:50;;;;;;;3.33;1.15;;;;;;;;;;5021237;28;20718;-66
2022/12/14 12:51:26;;;;;;;7.75;2.55;;;;;;;;;;5019886;28;20064;-66
2022/12/14 12:54:06;;;;;;;3.42;1.50;;;;;;;;;;5019189;28;20037;-66
2022/12/14 12:56:41;;;;;;;7.05;2.10;;;;;;;;;;5020149;28;20049;-66
2022/12/14 12:59:14;;;;;;;3.60;1.85;;;;;;;;;;5020554;28;20069;-66
2022/12/14 13:01:43;;;;;;;4.07;1.23;;;;;;;;;;5019669;28;20095;-66
2022/12/14 13:04:19;;;;;;;4.60;1.98;;;;;;;;;;5046758;28;20136;-67
2022/12/14 13:07:06;;;;;;;3.47;1.60;;;;;;;;;;5018499;28;20167;-68
2022/12/14 13:09:47;;;;;;;4.03;1.73;;;;;;;;;;5020662;28;20041;-68
2022/12/14 13:12:27;;;;;;;4.28;1.50;;;;;;;;;;5017774;28;20041;-67
2022/12/14 13:14:55;;;;;;;2.67;1.35;;;;;;;;;;5019581;28;20057;-65
2022/12/14 13:17:25;;;;;;;2.72;1.23;;;;;;;;;;5017749;28;20844;-67
2022/12/14 13:19:53;;;;;;;4.00;1.63;;;;;;;;;;5018623;28;20128;-68
2022/12/14 13:22:25;;;;;;;3.20;1.23;;;;;;;;;;5018415;28;20144;-69
2022/12/14 13:24:52;;;;;;;3.22;1.25;;;;;;;;;;5019509;28;20052;-68
2022/12/14 13:27:19;;;;;;;2.30;0.80;;;;;;;;;;5017485;28;20124;-69
2022/12/14 13:29:52;;;;;;;3.50;1.27;;;;;;;;;;5018398;28;20525;-69
2022/12/14 13:32:18;;;;;;;3.35;1.60;;;;;;;;;;5019574;28;20057;-65
2022/12/14 13:34:57;;;;;;;2.17;1.10;;;;;;;;;;5016949;28;20041;-71
2022/12/14 13:37:27;;;;;;;3.63;1.45;;;;;;;;;;5019948;28;20049;-71
2022/12/14 13:39:56;;;;;;;4.25;1.33;;;;;;;;;;5018445;28;20150;-66
2022/12/14 13:42:39;;;;;;;4.35;1.15;;;;;;;;;;5017481;28;20188;-66
2022/12/14 13:45:14;;;;;;;5.05;1.20;;;;;;;;;;5029491;28;20136;-67
2022/12/14 13:47:43;;;;;;;2.42;0.80;;;;;;;;;;5017878;28;20136;-67
2022/12/14 13:50:30;;;;;;;2.30;0.90;;;;;;;;;;5015028;28;20103;-67
2022/12/14 13:52:59;;;;;;;2.95;1.08;;;;;;;;;;5005860;28;20049;-67
2022/12/14 13:55:34;;;;;;;2.45;1.00;;;;;;;;;;5015955;28;20485;-68
2022/12/14 13:58:19;;;;;;;3.80;1.20;;;;;;;;;;5020355;28;20042;-68
2022/12/14 14:00:46;;;;;;;3.50;1.23;;;;;;;;;;5013495;28;20040;-67
2022/12/14 14:03:31;;;;;;;4.10;1.45;;;;;;;;;;5035115;28;20409;-66
2022/12/14 14:06:02;;;;;;;2.80;0.95;;;;;;;;;;5025529;28;20125;-67
2022/12/14 14:08:32;;;;;;;3.00;1.08;;;;;;;;;;5017982;28;20429;-68
2022/12/14 14:11:22;;;;;;;3.25;1.08;;;;;;;;;;5018298;28;20153;-67
2022/12/14 14:13:49;;;;;;;3.25;1.25;;;;;;;;;;5024597;28;20033;-67
2022/12/14 14:16:42;;;;;;;2.08;0.90;;;;;;;;;;5016716;28;20130;-67
2022/12/14 14:19:11;;;;;;;2.88;1.20;;;;;;;;;;5020209;28;20361;-67
2022/12/14 14:21:39;;;;;;;3.97;1.02;;;;;;;;;;5016930;28;20482;-67
2022/12/14 14:24:26;;;;;;;3.92;1.50;;;;;;;;;;5016908;28;20048;-67
2022/12/14 14:27:10;;;;;;;1.95;0.77;;;;;;;;;;5019654;28;20053;-68
2022/12/14 14:29:43;;;;;;;2.65;0.88;;;;;;;;;;5020374;28;20041;-67
2022/12/14 14:32:28;;;;;;;3.33;1.20;;;;;;;;;;5035691;28;21487;-68
2022/12/14 14:34:55;;;;;;;3.22;1.48;;;;;;;;;;5018854;28;20052;-67
2022/12/14 14:37:24;;;;;;;2.22;0.80;;;;;;;;;;5017431;28;20049;-67
2022/12/14 14:39:57;;;;;;;1.27;0.65;;;;;;;;;;5017063;28;20397;-68
2022/12/14 14:42:25;;;;;;;2.20;0.88;;;;;;;;;;5029541;28;20494;-68
2022/12/14 14:44:53;;;;;;;2.20;0.70;;;;;;;;;;5041770;28;20044;-67
2022/12/14 14:47:29;;;;;;;2.70;0.90;;;;;;;;;;5037176;28;20037;-67
2022/12/14 14:50:03;;;;;;;2.63;1.00;;;;;;;;;;5039529;28;20037;-67
2022/12/14 14:52:38;;;;;;;2.85;0.88;;;;;;;;;;5036007;28;20083;-67
2022/12/14 14:55:24;;;;;;;2.80;1.02;;;;;;;;;;5035500;28;20516;-67
2022/12/14 14:57:58;;;;;;;2.28;0.90;;;;;;;;;;5036777;28;20055;-67
2022/12/14 15:00:25;;;;;;;2.42;0.98;;;;;;;;;;5037643;28;20041;-66
2022/12/14 15:02:53;;;;;;;1.55;0.70;;;;;;;;;;5036398;28;20041;-67
2022/12/14 15:05:25;;;;;;;3.25;1.25;;;;;;;;;;5035212;28;20045;-67
2022/12/14 15:07:54;;;;;;;3.88;1.00;;;;;;;;;;5025249;28;20100;-67
2022/12/14 15:10:26;;;;;;;3.47;1.17;;;;;;;;;;5018060;28;20111;-67
2022/12/14 15:12:54;;;;;;;2.65;1.17;;;;;;;;;;5025520;28;20021;-67
2022/12/14 15:15:30;;;;;;;2.80;0.95;;;;;;;;;;5067008;28;20070;-67
2022/12/14 15:18:16;;;;;;;2.35;0.90;;;;;;;;;;5036147;28;20055;-67